createdAt,value
2022-12-19T00:00:19.500Z,560.00
2022-12-19T00:00:49.582Z,559.00
2022-12-19T00:01:19.715Z,559.00
2022-12-19T00:01:49.812Z,559.00
2022-12-19T00:02:19.946Z,560.00
2022-12-19T00:02:49.989Z,559.00
2022-12-19T00:03:19.957Z,559.00
2022-12-19T00:03:49.957Z,557.00
2022-12-19T00:04:19.931Z,556.00
2022-12-19T00:04:50.166Z,557.00
2022-12-19T00:05:20.123Z,557.00
2022-12-19T00:05:50.181Z,556.00
2022-12-19T00:06:20.292Z,557.00
2022-12-19T00:06:50.413Z,558.00
2022-12-19T00:07:20.413Z,557.00
2022-12-19T00:07:50.401Z,556.00
2022-12-19T00:08:20.402Z,558.00
2022-12-19T00:08:50.397Z,557.00
2022-12-19T00:09:20.512Z,558.00
2022-12-19T00:09:50.632Z,557.00
2022-12-19T00:10:20.625Z,556.00
2022-12-19T00:10:50.746Z,556.00
2022-12-19T00:11:20.782Z,554.00
2022-12-19T00:11:50.785Z,555.00
2022-12-19T00:12:20.776Z,554.00
2022-12-19T00:12:50.894Z,553.00
2022-12-19T00:13:20.897Z,553.00
2022-12-19T00:13:50.901Z,551.00
2022-12-19T00:14:20.892Z,550.00
2022-12-19T00:14:51.012Z,551.00
2022-12-19T00:15:21.135Z,551.00
2022-12-19T00:15:51.159Z,549.00
2022-12-19T00:16:21.221Z,548.00
2022-12-19T00:16:51.218Z,547.00
2022-12-19T00:17:21.307Z,547.00
2022-12-19T00:17:51.303Z,549.00
2022-12-19T00:18:21.318Z,551.00
2022-12-19T00:18:51.426Z,552.00
2022-12-19T00:19:21.504Z,550.00
2022-12-19T00:19:51.500Z,552.00
2022-12-19T00:20:21.738Z,553.00
2022-12-19T00:20:51.692Z,554.00
2022-12-19T00:21:21.692Z,555.00
2022-12-19T00:21:51.813Z,556.00
2022-12-19T00:22:21.931Z,557.00
2022-12-19T00:22:51.931Z,557.00
2022-12-19T00:23:21.924Z,556.00
2022-12-19T00:23:51.919Z,557.00
2022-12-19T00:24:22.020Z,557.00
2022-12-19T00:24:51.974Z,556.00
2022-12-19T00:25:22.018Z,559.00
2022-12-19T00:25:51.980Z,559.00
2022-12-19T00:26:22.086Z,559.00
2022-12-19T00:26:52.199Z,559.00
2022-12-19T00:27:22.207Z,558.00
2022-12-19T00:27:52.193Z,556.00
2022-12-19T00:28:22.310Z,556.00
2022-12-19T00:28:52.313Z,556.00
2022-12-19T00:29:22.309Z,557.00
2022-12-19T00:29:52.424Z,558.00
2022-12-19T00:30:22.416Z,557.00
2022-12-19T00:30:54.009Z,557.00
2022-12-19T00:31:22.584Z,558.00
2022-12-19T00:31:52.624Z,557.00
2022-12-19T00:32:22.610Z,557.00
2022-12-19T00:32:52.730Z,556.00
2022-12-19T00:33:22.721Z,557.00
2022-12-19T00:33:52.844Z,558.00
2022-12-19T00:34:22.836Z,558.00
2022-12-19T00:34:52.955Z,557.00
2022-12-19T00:35:22.947Z,556.00
2022-12-19T00:35:53.182Z,556.00
2022-12-19T00:36:23.277Z,556.00
2022-12-19T00:36:53.144Z,556.00
2022-12-19T00:37:23.134Z,557.00
2022-12-19T00:37:53.133Z,555.00
2022-12-19T00:38:23.131Z,555.00
2022-12-19T00:38:53.249Z,556.00
2022-12-19T00:39:23.382Z,557.00
2022-12-19T00:39:53.365Z,555.00
2022-12-19T00:40:23.355Z,557.00
2022-12-19T00:40:53.375Z,555.00
2022-12-19T00:41:23.386Z,555.00
2022-12-19T00:41:53.377Z,556.00
2022-12-19T00:42:23.501Z,554.00
2022-12-19T00:42:53.879Z,554.00
2022-12-19T00:43:23.549Z,555.00
2022-12-19T00:43:53.671Z,556.00
2022-12-19T00:44:23.667Z,556.00
2022-12-19T00:44:53.666Z,557.00
2022-12-19T00:45:23.879Z,557.00
2022-12-19T00:45:53.909Z,556.00
2022-12-19T00:46:23.904Z,554.00
2022-12-19T00:46:53.897Z,554.00
2022-12-19T00:47:23.913Z,556.00
2022-12-19T00:47:53.899Z,554.00
2022-12-19T00:48:24.009Z,555.00
2022-12-19T00:48:54.008Z,555.00
2022-12-19T00:49:24.002Z,554.00
2022-12-19T00:49:54.123Z,554.00
2022-12-19T00:50:24.116Z,553.00
2022-12-19T00:50:54.112Z,551.00
2022-12-19T00:51:24.340Z,550.00
2022-12-19T00:51:54.447Z,551.00
2022-12-19T00:52:24.339Z,552.00
2022-12-19T00:52:54.383Z,551.00
2022-12-19T00:53:24.461Z,552.00
2022-12-19T00:53:54.549Z,552.00
2022-12-19T00:54:24.697Z,552.00
2022-12-19T00:54:54.779Z,551.00
2022-12-19T00:55:24.734Z,551.00
2022-12-19T00:55:54.813Z,551.00
2022-12-19T00:56:24.888Z,552.00
2022-12-19T00:56:54.973Z,552.00
2022-12-19T00:57:25.116Z,553.00
2022-12-19T00:57:55.077Z,553.00
2022-12-19T00:58:25.085Z,553.00
2022-12-19T00:58:55.163Z,553.00
2022-12-19T00:59:26.859Z,553.00
2022-12-19T00:59:55.348Z,553.00
2022-12-19T01:00:25.428Z,552.00
2022-12-19T01:00:55.560Z,552.00
2022-12-19T01:01:25.839Z,552.00
2022-12-19T01:01:55.723Z,552.00
2022-12-19T01:02:25.744Z,553.00
2022-12-19T01:02:55.870Z,553.00
2022-12-19T01:03:25.747Z,553.00
2022-12-19T01:04:27.322Z,552.00
2022-12-19T01:04:28.534Z,553.00
2022-12-19T01:04:55.841Z,554.00
2022-12-19T01:05:25.831Z,553.00
2022-12-19T01:05:55.917Z,553.00
2022-12-19T01:06:26.146Z,554.00
2022-12-19T01:06:59.638Z,555.00
2022-12-19T01:07:26.122Z,554.00
2022-12-19T01:07:56.110Z,554.00
2022-12-19T01:08:26.107Z,555.00
2022-12-19T01:08:56.219Z,556.00
2022-12-19T01:09:26.332Z,557.00
2022-12-19T01:09:56.328Z,558.00
2022-12-19T01:10:26.447Z,559.00
2022-12-19T01:10:56.568Z,559.00
2022-12-19T01:11:26.567Z,560.00
2022-12-19T01:11:56.567Z,562.00
2022-12-19T01:12:26.684Z,563.00
2022-12-19T01:12:56.681Z,564.00
2022-12-19T01:13:26.806Z,564.00
2022-12-19T01:13:56.921Z,564.00
2022-12-19T01:14:26.912Z,564.00
2022-12-19T01:15:02.859Z,562.00
2022-12-19T01:15:26.932Z,563.00
2022-12-19T01:15:57.098Z,564.00
2022-12-19T01:16:27.187Z,566.00
2022-12-19T01:16:57.103Z,565.00
2022-12-19T01:17:27.103Z,564.00
2022-12-19T01:17:57.096Z,563.00
2022-12-19T01:18:27.225Z,560.00
2022-12-19T01:18:57.208Z,560.00
2022-12-19T01:19:27.222Z,557.00
2022-12-19T01:19:57.353Z,557.00
2022-12-19T01:20:29.687Z,557.00
2022-12-19T01:20:57.542Z,557.00
2022-12-19T01:21:27.547Z,556.00
2022-12-19T01:21:57.659Z,556.00
2022-12-19T01:22:27.621Z,556.00
2022-12-19T01:22:59.822Z,559.00
2022-12-19T01:23:27.759Z,558.00
2022-12-19T01:23:57.752Z,560.00
2022-12-19T01:24:27.754Z,561.00
2022-12-19T01:24:57.750Z,560.00
2022-12-19T01:25:27.747Z,559.00
2022-12-19T01:25:57.741Z,560.00
2022-12-19T01:26:27.738Z,559.00
2022-12-19T01:26:57.852Z,559.00
2022-12-19T01:27:27.856Z,557.00
2022-12-19T01:27:57.863Z,558.00
2022-12-19T01:28:27.858Z,558.00
2022-12-19T01:28:57.979Z,559.00
2022-12-19T01:29:27.973Z,559.00
2022-12-19T01:29:57.969Z,559.00
2022-12-19T01:30:29.117Z,560.00
2022-12-19T01:30:58.146Z,563.00
2022-12-19T01:31:28.357Z,563.00
2022-12-19T01:31:58.401Z,562.00
2022-12-19T01:32:28.392Z,564.00
2022-12-19T01:32:58.390Z,564.00
2022-12-19T01:33:28.379Z,563.00
2022-12-19T01:33:58.378Z,564.00
2022-12-19T01:34:28.494Z,563.00
2022-12-19T01:34:58.491Z,563.00
2022-12-19T01:35:28.488Z,561.00
2022-12-19T01:35:58.479Z,561.00
2022-12-19T01:36:28.608Z,561.00
2022-12-19T01:36:58.596Z,561.00
2022-12-19T01:37:28.830Z,560.00
2022-12-19T01:38:08.069Z,559.00
2022-12-19T01:38:28.817Z,559.00
2022-12-19T01:38:58.936Z,560.00
2022-12-19T01:39:29.942Z,561.00
2022-12-19T01:39:59.120Z,561.00
2022-12-19T01:40:29.236Z,560.00
2022-12-19T01:40:59.353Z,558.00
2022-12-19T01:41:29.372Z,559.00
2022-12-19T01:41:59.495Z,559.00
2022-12-19T01:42:29.498Z,558.00
2022-12-19T01:42:59.488Z,559.00
2022-12-19T01:43:29.607Z,558.00
2022-12-19T01:43:59.606Z,558.00
2022-12-19T01:44:29.725Z,559.00
2022-12-19T01:44:59.841Z,560.00
2022-12-19T01:45:33.910Z,559.00
2022-12-19T01:46:00.045Z,560.00
2022-12-19T01:46:30.108Z,560.00
2022-12-19T01:47:00.118Z,562.00
2022-12-19T01:47:30.109Z,560.00
2022-12-19T01:48:00.103Z,560.00
2022-12-19T01:48:30.098Z,560.00
2022-12-19T01:49:00.086Z,562.00
2022-12-19T01:49:30.085Z,561.00
2022-12-19T01:50:00.087Z,563.00
2022-12-19T01:50:30.195Z,563.00
2022-12-19T01:51:01.016Z,564.00
2022-12-19T01:51:30.225Z,566.00
2022-12-19T01:52:00.215Z,567.00
2022-12-19T01:52:30.459Z,565.00
2022-12-19T01:53:00.410Z,566.00
2022-12-19T01:53:30.495Z,566.00
2022-12-19T01:54:00.585Z,566.00
2022-12-19T01:54:30.663Z,566.00
2022-12-19T01:55:00.745Z,565.00
2022-12-19T01:55:30.815Z,565.00
2022-12-19T01:56:00.896Z,566.00
2022-12-19T01:56:30.950Z,566.00
2022-12-19T01:57:01.043Z,564.00
2022-12-19T01:57:31.114Z,562.00
2022-12-19T01:58:01.187Z,563.00
2022-12-19T01:58:31.267Z,564.00
2022-12-19T01:59:05.697Z,564.00
2022-12-19T01:59:31.452Z,564.00
2022-12-19T02:00:01.509Z,565.00
2022-12-19T02:00:31.577Z,564.00
2022-12-19T02:01:01.738Z,563.00
2022-12-19T02:01:31.839Z,562.00
2022-12-19T02:02:01.960Z,561.00
2022-12-19T02:02:31.856Z,562.00
2022-12-19T02:03:01.888Z,563.00
2022-12-19T02:03:31.827Z,564.00
2022-12-19T02:04:01.832Z,566.00
2022-12-19T02:04:32.749Z,566.00
2022-12-19T02:05:02.022Z,566.00
2022-12-19T02:05:32.024Z,566.00
2022-12-19T02:06:02.013Z,566.00
2022-12-19T02:06:32.134Z,566.00
2022-12-19T02:07:14.914Z,564.00
2022-12-19T02:07:32.254Z,563.00
2022-12-19T02:08:02.366Z,563.00
2022-12-19T02:08:32.331Z,563.00
2022-12-19T02:09:02.413Z,563.00
2022-12-19T02:09:32.400Z,563.00
2022-12-19T02:10:02.404Z,564.00
2022-12-19T02:10:32.389Z,563.00
2022-12-19T02:11:02.385Z,563.00
2022-12-19T02:11:32.506Z,563.00
2022-12-19T02:12:02.507Z,563.00
2022-12-19T02:12:32.535Z,563.00
2022-12-19T02:13:02.619Z,562.00
2022-12-19T02:13:32.612Z,560.00
2022-12-19T02:14:02.728Z,557.00
2022-12-19T02:14:32.851Z,556.00
2022-12-19T02:15:03.533Z,557.00
2022-12-19T02:15:32.942Z,559.00
2022-12-19T02:16:03.059Z,559.00
2022-12-19T02:16:33.237Z,560.00
2022-12-19T02:17:03.228Z,561.00
2022-12-19T02:17:33.226Z,562.00
2022-12-19T02:18:03.217Z,562.00
2022-12-19T02:18:33.338Z,564.00
2022-12-19T02:19:03.455Z,565.00
2022-12-19T02:19:33.452Z,566.00
2022-12-19T02:20:03.453Z,564.00
2022-12-19T02:20:33.566Z,564.00
2022-12-19T02:21:03.557Z,566.00
2022-12-19T02:21:33.677Z,566.00
2022-12-19T02:22:03.680Z,563.00
2022-12-19T02:22:33.675Z,562.00
2022-12-19T02:23:03.799Z,561.00
2022-12-19T02:23:34.036Z,562.00
2022-12-19T02:24:04.030Z,562.00
2022-12-19T02:24:34.807Z,561.00
2022-12-19T02:25:04.193Z,562.00
2022-12-19T02:25:34.317Z,563.00
2022-12-19T02:26:04.433Z,561.00
2022-12-19T02:26:34.427Z,561.00
2022-12-19T02:27:04.431Z,561.00
2022-12-19T02:27:39.825Z,563.00
2022-12-19T02:28:04.559Z,564.00
2022-12-19T02:28:34.563Z,563.00
2022-12-19T02:29:04.694Z,564.00
2022-12-19T02:29:34.678Z,564.00
2022-12-19T02:30:04.848Z,564.00
2022-12-19T02:30:34.821Z,565.00
2022-12-19T02:31:14.260Z,565.00
2022-12-19T02:31:34.864Z,566.00
2022-12-19T02:32:04.937Z,565.00
2022-12-19T02:32:36.277Z,565.00
2022-12-19T02:33:04.965Z,562.00
2022-12-19T02:33:34.966Z,561.00
2022-12-19T02:34:04.967Z,560.00
2022-12-19T02:34:36.963Z,558.00
2022-12-19T02:35:05.121Z,557.00
2022-12-19T02:35:35.239Z,556.00
2022-12-19T02:36:05.353Z,554.00
2022-12-19T02:36:38.901Z,554.00
2022-12-19T02:37:05.372Z,555.00
2022-12-19T02:37:35.439Z,555.00
2022-12-19T02:38:05.469Z,556.00
2022-12-19T02:38:35.497Z,558.00
2022-12-19T02:39:05.580Z,556.00
2022-12-19T02:39:35.549Z,557.00
2022-12-19T02:40:05.669Z,558.00
2022-12-19T02:40:35.664Z,557.00
2022-12-19T02:41:05.664Z,558.00
2022-12-19T02:41:35.792Z,557.00
2022-12-19T02:42:05.803Z,559.00
2022-12-19T02:42:35.794Z,560.00
2022-12-19T02:43:05.788Z,561.00
2022-12-19T02:43:35.908Z,561.00
2022-12-19T02:44:05.899Z,560.00
2022-12-19T02:44:35.896Z,561.00
2022-12-19T02:45:05.920Z,560.00
2022-12-19T02:45:35.967Z,560.00
2022-12-19T02:46:06.100Z,561.00
2022-12-19T02:46:36.011Z,558.00
2022-12-19T02:47:06.139Z,558.00
2022-12-19T02:47:36.135Z,558.00
2022-12-19T02:48:09.083Z,558.00
2022-12-19T02:48:36.248Z,558.00
2022-12-19T02:49:06.243Z,556.00
2022-12-19T02:49:36.240Z,558.00
2022-12-19T02:50:06.356Z,559.00
2022-12-19T02:50:36.351Z,561.00
2022-12-19T02:51:06.468Z,562.00
2022-12-19T02:51:36.590Z,562.00
2022-12-19T02:52:06.598Z,561.00
2022-12-19T02:52:36.602Z,560.00
2022-12-19T02:53:06.690Z,559.00
2022-12-19T02:53:36.774Z,559.00
2022-12-19T02:54:06.979Z,559.00
2022-12-19T02:54:36.902Z,558.00
2022-12-19T02:55:07.007Z,559.00
2022-12-19T02:55:37.090Z,558.00
2022-12-19T02:56:10.325Z,557.00
2022-12-19T02:56:37.198Z,557.00
2022-12-19T02:57:07.275Z,555.00
2022-12-19T02:57:37.367Z,555.00
2022-12-19T02:58:07.444Z,558.00
2022-12-19T02:58:37.518Z,559.00
2022-12-19T02:59:07.600Z,559.00
2022-12-19T02:59:37.684Z,557.00
2022-12-19T03:00:07.760Z,555.00
2022-12-19T03:00:37.852Z,555.00
2022-12-19T03:01:07.955Z,555.00
2022-12-19T03:01:38.255Z,555.00
2022-12-19T03:02:08.329Z,557.00
2022-12-19T03:02:38.242Z,557.00
2022-12-19T03:03:08.437Z,556.00
2022-12-19T03:03:38.459Z,555.00
2022-12-19T03:04:08.459Z,554.00
2022-12-19T03:04:38.572Z,555.00
2022-12-19T03:05:08.559Z,552.00
2022-12-19T03:05:38.683Z,552.00
2022-12-19T03:06:08.683Z,550.00
2022-12-19T03:06:38.693Z,549.00
2022-12-19T03:07:08.673Z,550.00
2022-12-19T03:07:38.790Z,551.00
2022-12-19T03:08:08.908Z,551.00
2022-12-19T03:08:38.893Z,551.00
2022-12-19T03:09:08.892Z,552.00
2022-12-19T03:09:39.039Z,552.00
2022-12-19T03:10:09.004Z,551.00
2022-12-19T03:10:39.124Z,551.00
2022-12-19T03:11:09.242Z,551.00
2022-12-19T03:11:39.365Z,551.00
2022-12-19T03:12:12.834Z,550.00
2022-12-19T03:12:39.382Z,551.00
2022-12-19T03:13:09.379Z,552.00
2022-12-19T03:13:39.494Z,552.00
2022-12-19T03:14:09.484Z,552.00
2022-12-19T03:14:39.481Z,552.00
2022-12-19T03:15:09.598Z,552.00
2022-12-19T03:15:39.718Z,551.00
2022-12-19T03:16:09.736Z,550.00
2022-12-19T03:16:39.894Z,551.00
2022-12-19T03:17:09.969Z,553.00
2022-12-19T03:17:39.967Z,552.00
2022-12-19T03:18:10.112Z,552.00
2022-12-19T03:18:40.205Z,555.00
2022-12-19T03:19:10.200Z,555.00
2022-12-19T03:19:40.313Z,554.00
2022-12-19T03:20:10.308Z,555.00
2022-12-19T03:20:40.312Z,554.00
2022-12-19T03:21:10.422Z,555.00
2022-12-19T03:21:40.542Z,556.00
2022-12-19T03:22:10.666Z,554.00
2022-12-19T03:22:40.787Z,553.00
2022-12-19T03:23:10.790Z,552.00
2022-12-19T03:23:40.901Z,551.00
2022-12-19T03:24:11.011Z,551.00
2022-12-19T03:24:41.130Z,551.00
2022-12-19T03:25:11.378Z,553.00
2022-12-19T03:25:41.343Z,555.00
2022-12-19T03:26:11.328Z,556.00
2022-12-19T03:26:41.341Z,556.00
2022-12-19T03:27:11.453Z,557.00
2022-12-19T03:27:41.461Z,558.00
2022-12-19T03:28:11.441Z,558.00
2022-12-19T03:28:41.560Z,556.00
2022-12-19T03:29:11.566Z,555.00
2022-12-19T03:29:41.678Z,557.00
2022-12-19T03:30:11.793Z,555.00
2022-12-19T03:30:41.826Z,555.00
2022-12-19T03:31:11.838Z,558.00
2022-12-19T03:31:41.822Z,559.00
2022-12-19T03:32:11.824Z,560.00
2022-12-19T03:32:41.936Z,560.00
2022-12-19T03:33:12.064Z,561.00
2022-12-19T03:33:42.048Z,562.00
2022-12-19T03:34:12.372Z,560.00
2022-12-19T03:34:42.234Z,561.00
2022-12-19T03:35:12.245Z,562.00
2022-12-19T03:35:42.361Z,561.00
2022-12-19T03:36:12.483Z,559.00
2022-12-19T03:36:42.480Z,558.00
2022-12-19T03:37:12.597Z,557.00
2022-12-19T03:37:42.592Z,558.00
2022-12-19T03:38:12.587Z,559.00
2022-12-19T03:38:42.587Z,558.00
2022-12-19T03:39:12.707Z,560.00
2022-12-19T03:39:42.696Z,560.00
2022-12-19T03:40:12.699Z,560.00
2022-12-19T03:40:42.813Z,561.00
2022-12-19T03:41:12.780Z,563.00
2022-12-19T03:41:42.891Z,562.00
2022-12-19T03:42:12.934Z,561.00
2022-12-19T03:42:42.957Z,561.00
2022-12-19T03:43:13.080Z,557.00
2022-12-19T03:43:43.148Z,558.00
2022-12-19T03:44:13.254Z,558.00
2022-12-19T03:44:43.365Z,557.00
2022-12-19T03:45:13.370Z,557.00
2022-12-19T03:45:43.409Z,559.00
2022-12-19T03:46:13.445Z,558.00
2022-12-19T03:46:43.444Z,559.00
2022-12-19T03:47:13.445Z,560.00
2022-12-19T03:47:43.437Z,559.00
2022-12-19T03:48:13.574Z,558.00
2022-12-19T03:48:43.671Z,559.00
2022-12-19T03:49:13.799Z,560.00
2022-12-19T03:49:43.789Z,560.00
2022-12-19T03:50:13.788Z,560.00
2022-12-19T03:50:43.782Z,559.00
2022-12-19T03:51:13.775Z,559.00
2022-12-19T03:51:43.892Z,559.00
2022-12-19T03:52:14.015Z,558.00
2022-12-19T03:52:44.011Z,556.00
2022-12-19T03:53:14.105Z,556.00
2022-12-19T03:53:44.179Z,556.00
2022-12-19T03:54:14.263Z,556.00
2022-12-19T03:54:44.342Z,557.00
2022-12-19T03:55:14.424Z,558.00
2022-12-19T03:55:44.510Z,558.00
2022-12-19T03:56:14.701Z,557.00
2022-12-19T03:56:44.636Z,559.00
2022-12-19T03:57:14.721Z,560.00
2022-12-19T03:57:44.792Z,559.00
2022-12-19T03:58:14.883Z,559.00
2022-12-19T03:58:44.959Z,561.00
2022-12-19T03:59:15.041Z,561.00
2022-12-19T03:59:45.125Z,562.00
2022-12-19T04:00:15.221Z,561.00
2022-12-19T04:00:45.301Z,562.00
2022-12-19T04:01:15.430Z,562.00
2022-12-19T04:01:45.643Z,564.00
2022-12-19T04:02:15.660Z,563.00
2022-12-19T04:02:45.507Z,563.00
2022-12-19T04:03:15.674Z,563.00
2022-12-19T04:03:45.771Z,563.00
2022-12-19T04:04:15.744Z,562.00
2022-12-19T04:04:45.737Z,562.00
2022-12-19T04:05:15.736Z,562.00
2022-12-19T04:05:45.728Z,561.00
2022-12-19T04:06:15.728Z,560.00
2022-12-19T04:06:45.723Z,562.00
2022-12-19T04:07:15.729Z,561.00
2022-12-19T04:07:45.735Z,561.00
2022-12-19T04:08:15.734Z,561.00
2022-12-19T04:08:45.749Z,562.00
2022-12-19T04:09:22.174Z,563.00
2022-12-19T04:09:45.763Z,562.00
2022-12-19T04:10:15.756Z,562.00
2022-12-19T04:10:45.881Z,561.00
2022-12-19T04:11:15.870Z,559.00
2022-12-19T04:11:46.125Z,560.00
2022-12-19T04:12:16.121Z,559.00
2022-12-19T04:12:46.118Z,559.00
2022-12-19T04:13:16.231Z,559.00
2022-12-19T04:13:46.223Z,559.00
2022-12-19T04:14:16.220Z,558.00
2022-12-19T04:14:46.350Z,557.00
2022-12-19T04:15:16.339Z,557.00
2022-12-19T04:15:46.476Z,556.00
2022-12-19T04:16:16.634Z,555.00
2022-12-19T04:16:46.638Z,555.00
2022-12-19T04:17:16.649Z,555.00
2022-12-19T04:17:46.649Z,554.00
2022-12-19T04:18:16.650Z,556.00
2022-12-19T04:18:46.643Z,557.00
2022-12-19T04:19:16.647Z,557.00
2022-12-19T04:19:46.756Z,557.00
2022-12-19T04:20:16.769Z,558.00
2022-12-19T04:20:46.745Z,559.00
2022-12-19T04:21:16.863Z,560.00
2022-12-19T04:21:46.855Z,561.00
2022-12-19T04:22:16.993Z,561.00
2022-12-19T04:22:46.988Z,561.00
2022-12-19T04:23:17.105Z,560.00
2022-12-19T04:23:47.233Z,560.00
2022-12-19T04:24:17.353Z,560.00
2022-12-19T04:24:47.392Z,561.00
2022-12-19T04:25:17.394Z,561.00
2022-12-19T04:25:47.385Z,561.00
2022-12-19T04:26:17.509Z,561.00
2022-12-19T04:26:47.508Z,561.00
2022-12-19T04:27:17.745Z,560.00
2022-12-19T04:27:47.702Z,560.00
2022-12-19T04:28:17.698Z,561.00
2022-12-19T04:28:47.813Z,560.00
2022-12-19T04:29:17.834Z,561.00
2022-12-19T04:29:47.813Z,562.00
2022-12-19T04:30:17.848Z,562.00
2022-12-19T04:30:47.830Z,562.00
2022-12-19T04:31:17.909Z,561.00
2022-12-19T04:31:47.937Z,561.00
2022-12-19T04:32:18.057Z,562.00
2022-12-19T04:32:48.064Z,561.00
2022-12-19T04:33:18.065Z,561.00
2022-12-19T04:33:48.062Z,560.00
2022-12-19T04:34:18.176Z,559.00
2022-12-19T04:34:48.296Z,560.00
2022-12-19T04:35:18.291Z,560.00
2022-12-19T04:35:48.292Z,561.00
2022-12-19T04:36:18.307Z,562.00
2022-12-19T04:36:48.278Z,561.00
2022-12-19T04:37:18.397Z,561.00
2022-12-19T04:37:48.397Z,560.00
2022-12-19T04:38:18.516Z,560.00
2022-12-19T04:38:48.630Z,559.00
2022-12-19T04:39:18.758Z,558.00
2022-12-19T04:39:48.756Z,560.00
2022-12-19T04:40:18.757Z,560.00
2022-12-19T04:40:48.867Z,560.00
2022-12-19T04:41:18.865Z,560.00
2022-12-19T04:41:48.978Z,561.00
2022-12-19T04:42:18.980Z,561.00
2022-12-19T04:42:49.213Z,561.00
2022-12-19T04:43:19.181Z,562.00
2022-12-19T04:43:49.178Z,563.00
2022-12-19T04:44:19.182Z,566.00
2022-12-19T04:44:49.308Z,566.00
2022-12-19T04:45:19.409Z,565.00
2022-12-19T04:45:54.011Z,565.00
2022-12-19T04:46:19.549Z,563.00
2022-12-19T04:46:49.638Z,564.00
2022-12-19T04:47:19.654Z,564.00
2022-12-19T04:47:49.767Z,564.00
2022-12-19T04:48:19.772Z,563.00
2022-12-19T04:48:49.762Z,565.00
2022-12-19T04:49:19.836Z,562.00
2022-12-19T04:49:49.829Z,563.00
2022-12-19T04:50:19.949Z,565.00
2022-12-19T04:50:49.954Z,565.00
2022-12-19T04:51:20.079Z,566.00
2022-12-19T04:51:50.069Z,567.00
2022-12-19T04:52:20.195Z,567.00
2022-12-19T04:52:53.260Z,567.00
2022-12-19T04:53:20.310Z,567.00
2022-12-19T04:53:50.394Z,567.00
2022-12-19T04:54:20.492Z,568.00
2022-12-19T04:54:50.562Z,568.00
2022-12-19T04:55:20.635Z,568.00
2022-12-19T04:55:50.711Z,567.00
2022-12-19T04:56:20.793Z,567.00
2022-12-19T04:56:50.873Z,567.00
2022-12-19T04:57:20.959Z,569.00
2022-12-19T04:57:51.046Z,570.00
2022-12-19T04:58:22.143Z,571.00
2022-12-19T04:58:51.145Z,571.00
2022-12-19T04:59:21.229Z,572.00
2022-12-19T04:59:51.308Z,572.00
2022-12-19T05:00:21.394Z,572.00
2022-12-19T05:00:51.473Z,572.00
2022-12-19T05:01:21.726Z,571.00
2022-12-19T05:01:51.859Z,571.00
2022-12-19T05:02:21.909Z,573.00
2022-12-19T05:02:52.248Z,574.00
2022-12-19T05:03:21.912Z,573.00
2022-12-19T05:03:55.767Z,575.00
2022-12-19T05:04:21.933Z,574.00
2022-12-19T05:04:51.931Z,574.00
2022-12-19T05:05:21.932Z,574.00
2022-12-19T05:05:51.922Z,575.00
2022-12-19T05:06:21.918Z,575.00
2022-12-19T05:06:51.909Z,573.00
2022-12-19T05:07:22.025Z,573.00
2022-12-19T05:07:52.030Z,573.00
2022-12-19T05:08:22.022Z,574.00
2022-12-19T05:08:52.148Z,574.00
2022-12-19T05:09:22.151Z,575.00
2022-12-19T05:09:52.153Z,576.00
2022-12-19T05:10:22.270Z,575.00
2022-12-19T05:10:52.268Z,575.00
2022-12-19T05:11:22.387Z,576.00
2022-12-19T05:11:52.503Z,575.00
2022-12-19T05:12:22.513Z,576.00
2022-12-19T05:12:52.621Z,575.00
2022-12-19T05:13:22.853Z,576.00
2022-12-19T05:13:52.816Z,576.00
2022-12-19T05:14:22.939Z,578.00
2022-12-19T05:14:53.053Z,579.00
2022-12-19T05:15:23.077Z,581.00
2022-12-19T05:15:53.112Z,580.00
2022-12-19T05:16:23.112Z,580.00
2022-12-19T05:16:58.912Z,579.00
2022-12-19T05:17:23.131Z,582.00
2022-12-19T05:17:53.184Z,584.00
2022-12-19T05:18:23.154Z,584.00
2022-12-19T05:18:53.272Z,585.00
2022-12-19T05:19:23.387Z,585.00
2022-12-19T05:19:53.387Z,585.00
2022-12-19T05:20:23.509Z,586.00
2022-12-19T05:20:53.504Z,590.00
2022-12-19T05:21:23.502Z,590.00
2022-12-19T05:21:53.616Z,592.00
2022-12-19T05:22:23.613Z,591.00
2022-12-19T05:22:53.731Z,592.00
2022-12-19T05:23:23.633Z,594.00
2022-12-19T05:23:53.664Z,595.00
2022-12-19T05:24:23.668Z,598.00
2022-12-19T05:24:53.653Z,599.00
2022-12-19T05:25:23.663Z,600.00
2022-12-19T05:25:53.661Z,599.00
2022-12-19T05:26:23.668Z,599.00
2022-12-19T05:26:53.670Z,600.00
2022-12-19T05:27:23.791Z,599.00
2022-12-19T05:27:53.784Z,600.00
2022-12-19T05:28:23.780Z,601.00
2022-12-19T05:28:54.020Z,601.00
2022-12-19T05:29:24.008Z,601.00
2022-12-19T05:29:54.003Z,604.00
2022-12-19T05:30:24.005Z,607.00
2022-12-19T05:30:54.066Z,608.00
2022-12-19T05:31:24.071Z,608.00
2022-12-19T05:31:54.125Z,607.00
2022-12-19T05:32:24.253Z,608.00
2022-12-19T05:32:54.239Z,607.00
2022-12-19T05:33:24.353Z,605.00
2022-12-19T05:33:54.378Z,607.00
2022-12-19T05:34:24.427Z,607.00
2022-12-19T05:34:54.450Z,607.00
2022-12-19T05:35:24.445Z,609.00
2022-12-19T05:35:54.581Z,608.00
2022-12-19T05:36:30.713Z,609.00
2022-12-19T05:36:54.721Z,610.00
2022-12-19T05:37:24.716Z,610.00
2022-12-19T05:37:54.713Z,610.00
2022-12-19T05:38:24.709Z,610.00
2022-12-19T05:38:54.822Z,611.00
2022-12-19T05:39:24.821Z,611.00
2022-12-19T05:39:54.844Z,613.00
2022-12-19T05:40:24.825Z,613.00
2022-12-19T05:40:54.822Z,612.00
2022-12-19T05:41:24.815Z,613.00
2022-12-19T05:41:54.811Z,614.00
2022-12-19T05:42:24.814Z,615.00
2022-12-19T05:42:54.930Z,615.00
2022-12-19T05:43:24.928Z,619.00
2022-12-19T05:43:54.925Z,618.00
2022-12-19T05:44:25.161Z,617.00
2022-12-19T05:44:55.153Z,617.00
2022-12-19T05:45:25.192Z,618.00
2022-12-19T05:45:55.309Z,619.00
2022-12-19T05:46:25.332Z,621.00
2022-12-19T05:46:55.462Z,619.00
2022-12-19T05:47:25.459Z,620.00
2022-12-19T05:47:58.709Z,620.00
2022-12-19T05:48:25.493Z,619.00
2022-12-19T05:48:55.523Z,618.00
2022-12-19T05:49:25.562Z,618.00
2022-12-19T05:49:55.557Z,618.00
2022-12-19T05:50:25.542Z,617.00
2022-12-19T05:50:55.546Z,617.00
2022-12-19T05:51:25.665Z,617.00
2022-12-19T05:51:55.663Z,616.00
2022-12-19T05:52:25.661Z,618.00
2022-12-19T05:52:55.768Z,620.00
2022-12-19T05:53:26.205Z,621.00
2022-12-19T05:53:55.968Z,622.00
2022-12-19T05:54:26.062Z,622.00
2022-12-19T05:54:56.180Z,625.00
2022-12-19T05:55:26.214Z,626.00
2022-12-19T05:55:56.178Z,626.00
2022-12-19T05:56:26.286Z,628.00
2022-12-19T05:56:56.378Z,627.00
2022-12-19T05:57:26.465Z,628.00
2022-12-19T05:57:56.830Z,628.00
2022-12-19T05:58:26.550Z,627.00
2022-12-19T05:58:56.632Z,628.00
2022-12-19T05:59:26.714Z,630.00
2022-12-19T05:59:56.929Z,630.00
2022-12-19T06:00:26.859Z,631.00
2022-12-19T06:01:00.776Z,631.00
2022-12-19T06:01:27.064Z,631.00
2022-12-19T06:01:57.235Z,631.00
2022-12-19T06:02:27.215Z,631.00
2022-12-19T06:02:57.396Z,633.00
2022-12-19T06:03:27.349Z,632.00
2022-12-19T06:03:57.404Z,632.00
2022-12-19T06:04:27.468Z,635.00
2022-12-19T06:04:57.481Z,636.00
2022-12-19T06:05:27.598Z,638.00
2022-12-19T06:05:57.719Z,638.00
2022-12-19T06:06:27.716Z,639.00
2022-12-19T06:06:57.829Z,640.00
2022-12-19T06:07:27.953Z,641.00
2022-12-19T06:07:57.949Z,643.00
2022-12-19T06:08:27.944Z,641.00
2022-12-19T06:08:57.966Z,642.00
2022-12-19T06:09:27.939Z,645.00
2022-12-19T06:09:57.935Z,646.00
2022-12-19T06:10:27.931Z,647.00
2022-12-19T06:10:58.045Z,647.00
2022-12-19T06:11:28.161Z,647.00
2022-12-19T06:11:58.160Z,647.00
2022-12-19T06:12:28.276Z,650.00
2022-12-19T06:12:58.397Z,650.00
2022-12-19T06:13:28.393Z,651.00
2022-12-19T06:13:58.524Z,650.00
2022-12-19T06:14:28.506Z,650.00
2022-12-19T06:14:58.622Z,651.00